createdAt,value
2023-05-03T00:00:15.288Z,10.82
2023-05-03T00:02:45.246Z,9.80
2023-05-03T00:05:14.488Z,10.55
2023-05-03T00:07:44.126Z,10.28
2023-05-03T00:10:17.799Z,8.65
2023-05-03T00:12:45.645Z,9.00
2023-05-03T00:15:13.527Z,7.00
2023-05-03T00:17:41.578Z,9.10
2023-05-03T00:20:11.568Z,9.83
2023-05-03T00:22:41.362Z,7.55
2023-05-03T00:25:09.933Z,10.05
2023-05-03T00:27:37.911Z,8.05
2023-05-03T00:30:07.460Z,8.18
2023-05-03T00:32:37.756Z,12.07
2023-05-03T00:35:06.310Z,6.72
2023-05-03T00:37:34.246Z,8.30
2023-05-03T00:40:02.250Z,7.33
2023-05-03T00:42:30.269Z,6.60
2023-05-03T00:44:58.047Z,10.03
2023-05-03T00:47:26.051Z,8.30
2023-05-03T00:49:53.833Z,9.50
2023-05-03T00:52:21.798Z,8.63
2023-05-03T00:54:49.547Z,11.25
2023-05-03T00:57:17.267Z,8.98
2023-05-03T00:59:45.600Z,10.68
2023-05-03T01:02:13.335Z,8.38
2023-05-03T01:04:43.310Z,6.55
2023-05-03T01:07:34.860Z,5.28
2023-05-03T01:10:36.321Z,7.85
2023-05-03T01:13:42.049Z,8.33
2023-05-03T01:16:18.155Z,6.00
2023-05-03T01:18:51.263Z,9.10
2023-05-03T01:21:22.311Z,7.05
2023-05-03T01:24:04.064Z,7.35
2023-05-03T01:26:32.918Z,7.03
2023-05-03T01:29:00.757Z,7.97
2023-05-03T01:31:55.151Z,7.33
2023-05-03T01:34:48.882Z,9.65
2023-05-03T01:37:18.479Z,5.78
2023-05-03T01:39:59.827Z,7.60
2023-05-03T01:42:28.905Z,7.00
2023-05-03T01:44:57.041Z,6.15
2023-05-03T01:47:26.207Z,13.35
2023-05-03T01:49:54.077Z,8.10
2023-05-03T01:52:24.385Z,7.78
2023-05-03T01:54:52.102Z,7.50
2023-05-03T01:57:19.997Z,9.88
2023-05-03T01:59:47.922Z,8.70
2023-05-03T02:02:15.604Z,6.22
2023-05-03T02:04:43.447Z,9.13
2023-05-03T02:07:11.409Z,8.23
2023-05-03T02:09:39.572Z,7.12
2023-05-03T02:12:07.828Z,4.50
2023-05-03T02:14:35.896Z,7.85
2023-05-03T02:17:03.853Z,6.28
2023-05-03T02:19:32.001Z,7.70
2023-05-03T02:22:01.221Z,17.10
2023-05-03T02:24:29.142Z,14.33
2023-05-03T02:26:57.291Z,11.60
2023-05-03T02:29:25.024Z,11.78
2023-05-03T02:31:52.516Z,24.87
2023-05-03T02:34:20.392Z,21.93
2023-05-03T02:36:48.559Z,15.13
2023-05-03T02:39:17.032Z,13.35
2023-05-03T02:41:45.364Z,7.70
2023-05-03T02:44:13.660Z,12.55
2023-05-03T02:46:41.787Z,8.63
2023-05-03T02:49:10.393Z,12.20
2023-05-03T02:51:38.736Z,10.43
2023-05-03T02:57:36.674Z,12.63
2023-05-03T03:00:19.801Z,11.78
2023-05-03T03:02:47.818Z,18.05
2023-05-03T03:05:15.988Z,12.10
2023-05-03T03:07:45.811Z,12.53
2023-05-03T03:10:13.855Z,17.70
2023-05-03T03:12:41.903Z,13.00
2023-05-03T03:15:11.183Z,14.45
2023-05-03T03:17:39.560Z,12.05
2023-05-03T03:20:11.312Z,9.60
2023-05-03T03:22:39.954Z,8.65
2023-05-03T03:25:08.849Z,4.85
2023-05-03T03:27:39.071Z,5.12
2023-05-03T03:30:08.869Z,6.12
2023-05-03T03:32:37.011Z,14.47
2023-05-03T03:35:07.135Z,8.45
2023-05-03T03:37:35.093Z,5.45
2023-05-03T03:40:03.825Z,6.17
2023-05-03T03:42:32.303Z,8.20
2023-05-03T03:45:00.281Z,7.67
2023-05-03T03:47:28.013Z,16.40
2023-05-03T03:49:56.107Z,13.90
2023-05-03T03:52:24.281Z,26.52
2023-05-03T03:54:52.654Z,18.52
2023-05-03T03:57:20.774Z,22.80
2023-05-03T03:59:50.759Z,19.27
2023-05-03T04:02:18.753Z,15.90
2023-05-03T04:04:46.911Z,7.95
2023-05-03T04:07:16.749Z,14.30
2023-05-03T04:09:45.474Z,8.60
2023-05-03T04:12:13.465Z,14.15
2023-05-03T04:14:43.450Z,10.20
2023-05-03T04:17:30.095Z,10.20
2023-05-03T04:20:08.726Z,16.48
2023-05-03T04:22:43.878Z,15.75
2023-05-03T04:25:27.039Z,8.98
2023-05-03T04:28:01.093Z,9.25
2023-05-03T04:30:31.990Z,7.72
2023-05-03T04:33:03.312Z,9.90
2023-05-03T04:35:38.598Z,10.53
2023-05-03T04:38:11.019Z,17.50
2023-05-03T04:40:39.360Z,9.75
2023-05-03T04:43:11.352Z,14.50
2023-05-03T04:45:41.901Z,15.58
2023-05-03T04:48:11.984Z,11.70
2023-05-03T04:50:39.819Z,15.15
2023-05-03T04:53:09.079Z,9.30
2023-05-03T04:55:38.807Z,12.40
2023-05-03T04:58:07.222Z,7.83
2023-05-03T05:00:36.106Z,5.70
2023-05-03T05:03:05.976Z,8.30
2023-05-03T05:05:35.175Z,11.57
2023-05-03T05:08:03.712Z,5.60
2023-05-03T05:10:40.390Z,5.35
2023-05-03T05:13:10.202Z,6.33
2023-05-03T05:15:38.458Z,6.62
2023-05-03T05:18:08.937Z,5.70
2023-05-03T05:20:37.779Z,5.12
2023-05-03T05:23:06.266Z,8.88
2023-05-03T05:25:34.422Z,5.58
2023-05-03T05:28:03.351Z,4.83
2023-05-03T05:30:31.696Z,6.67
2023-05-03T05:33:03.407Z,6.20
2023-05-03T05:35:43.331Z,7.65
2023-05-03T05:38:17.313Z,8.28
2023-05-03T05:40:47.436Z,5.67
2023-05-03T05:43:15.738Z,6.03
2023-05-03T05:45:45.751Z,6.97
2023-05-03T05:48:15.052Z,11.50
2023-05-03T05:50:44.124Z,6.37
2023-05-03T05:53:12.871Z,10.00
2023-05-03T05:55:42.774Z,7.83
2023-05-03T05:58:12.484Z,9.35
2023-05-03T06:00:41.864Z,6.97
2023-05-03T06:03:09.991Z,8.65
2023-05-03T06:05:38.430Z,5.97
2023-05-03T06:08:06.503Z,6.42
2023-05-03T06:10:51.698Z,8.48
2023-05-03T06:14:36.977Z,6.67
2023-05-03T06:16:56.753Z,5.53
2023-05-03T06:19:31.013Z,7.12
2023-05-03T06:22:02.860Z,9.55
2023-05-03T06:27:48.293Z,5.70
2023-05-03T06:30:27.354Z,9.55
2023-05-03T06:33:13.938Z,5.28
2023-05-03T06:36:08.940Z,7.53
2023-05-03T06:38:41.574Z,14.43
2023-05-03T06:41:42.111Z,6.30
2023-05-03T06:44:17.765Z,5.95
2023-05-03T06:47:11.335Z,7.30
2023-05-03T06:52:53.797Z,3.77
2023-05-03T06:59:04.448Z,12.50
2023-05-03T07:01:45.631Z,3.90
2023-05-03T07:04:28.100Z,3.35
2023-05-03T07:07:06.949Z,2.92
2023-05-03T07:09:44.370Z,3.98
2023-05-03T07:14:52.769Z,3.47
2023-05-03T07:17:24.644Z,5.55
2023-05-03T07:20:04.076Z,5.03
2023-05-03T07:23:10.939Z,3.55
2023-05-03T07:25:43.861Z,3.17
2023-05-03T07:28:15.936Z,4.83
2023-05-03T07:30:48.329Z,7.90
2023-05-03T07:33:16.878Z,5.80
2023-05-03T07:35:55.379Z,9.83
2023-05-03T07:38:25.734Z,6.70
2023-05-03T07:40:58.277Z,5.37
2023-05-03T07:50:18.045Z,3.50
2023-05-03T07:53:13.006Z,5.70
2023-05-03T07:58:40.619Z,8.98
2023-05-03T08:01:13.927Z,6.33
2023-05-03T08:04:08.632Z,6.62
2023-05-03T08:06:43.318Z,6.97
2023-05-03T08:09:13.789Z,15.63
2023-05-03T08:11:45.802Z,9.78
2023-05-03T08:14:15.491Z,6.40
2023-05-03T08:16:43.593Z,5.05
2023-05-03T08:19:12.435Z,8.18
2023-05-03T08:22:16.447Z,3.65
2023-05-03T08:24:52.391Z,5.62
2023-05-03T08:27:25.225Z,7.53
2023-05-03T08:29:58.528Z,6.20
2023-05-03T08:32:30.056Z,7.42
2023-05-03T08:34:59.539Z,4.05
2023-05-03T08:37:27.760Z,7.10
2023-05-03T08:39:57.909Z,8.88
2023-05-03T08:42:32.937Z,8.15
2023-05-03T08:45:05.622Z,4.20
2023-05-03T08:47:57.184Z,6.60
2023-05-03T08:50:31.549Z,10.70
2023-05-03T08:53:05.671Z,4.92
2023-05-03T08:55:40.503Z,6.05
2023-05-03T08:58:31.203Z,7.72
2023-05-03T09:01:14.489Z,7.30
2023-05-03T09:03:55.156Z,4.50
2023-05-03T09:06:28.014Z,5.85
2023-05-03T09:09:04.206Z,8.08
2023-05-03T09:11:39.727Z,7.03
2023-05-03T09:14:13.332Z,3.87
2023-05-03T09:16:46.293Z,5.80
2023-05-03T09:19:16.477Z,3.33
2023-05-03T09:21:51.308Z,5.25
2023-05-03T09:24:34.163Z,5.00
2023-05-03T09:27:06.454Z,1.62
2023-05-03T09:29:36.626Z,8.35
2023-05-03T09:32:07.263Z,6.80
2023-05-03T09:34:40.317Z,9.65
2023-05-03T09:37:14.390Z,4.65
2023-05-03T09:39:55.162Z,2.92
2023-05-03T09:42:26.096Z,5.28
2023-05-03T09:44:59.063Z,7.75
2023-05-03T09:47:31.791Z,4.65
2023-05-03T09:49:58.561Z,3.02
2023-05-03T09:52:33.201Z,1.62
2023-05-03T09:55:01.881Z,8.13
2023-05-03T09:57:46.072Z,4.05
2023-05-03T10:00:17.874Z,5.92
2023-05-03T10:02:48.528Z,9.55
2023-05-03T10:05:23.538Z,2.30
2023-05-03T10:07:59.522Z,1.57
2023-05-03T10:10:32.842Z,9.30
2023-05-03T10:13:04.561Z,1.60
2023-05-03T10:15:37.335Z,4.30
2023-05-03T10:18:09.342Z,2.85
2023-05-03T10:20:45.925Z,8.80
2023-05-03T10:23:14.562Z,4.10
2023-05-03T10:26:14.619Z,4.08
2023-05-03T10:28:46.756Z,2.35
2023-05-03T10:31:51.806Z,4.40
2023-05-03T10:34:25.592Z,3.58
2023-05-03T10:36:55.325Z,3.62
2023-05-03T10:39:27.586Z,2.85
2023-05-03T10:42:05.799Z,25.92
2023-05-03T10:44:56.813Z,5.70
2023-05-03T10:47:24.881Z,5.90
2023-05-03T10:50:18.203Z,3.55
2023-05-03T10:52:49.348Z,11.00
2023-05-03T10:55:24.289Z,4.78
2023-05-03T10:57:57.233Z,3.77
2023-05-03T11:00:38.693Z,16.90
2023-05-03T11:03:54.853Z,6.87
2023-05-03T11:09:07.764Z,6.58
2023-05-03T11:11:39.737Z,5.72
2023-05-03T11:14:10.167Z,12.18
2023-05-03T11:16:42.478Z,6.08
2023-05-03T11:19:11.695Z,7.15
2023-05-03T11:21:40.105Z,4.67
2023-05-03T11:24:10.479Z,10.58
2023-05-03T11:26:39.744Z,3.52
2023-05-03T11:29:14.819Z,3.58
2023-05-03T11:34:46.392Z,6.78
2023-05-03T11:37:16.674Z,7.58
2023-05-03T11:39:50.019Z,3.10
2023-05-03T11:42:18.789Z,7.62
2023-05-03T11:44:56.734Z,5.42
2023-05-03T11:50:08.061Z,7.90
2023-05-03T11:52:37.175Z,3.12
2023-05-03T11:55:08.814Z,18.27
2023-05-03T12:00:46.345Z,3.33
2023-05-03T12:03:32.069Z,8.18
2023-05-03T12:06:04.702Z,7.80
2023-05-03T12:08:39.573Z,7.28
2023-05-03T12:11:09.683Z,4.65
2023-05-03T12:13:44.302Z,2.33
2023-05-03T12:16:27.255Z,5.10
2023-05-03T12:19:09.396Z,3.55
2023-05-03T12:22:07.813Z,15.03
2023-05-03T12:24:32.689Z,7.37
2023-05-03T12:27:01.511Z,1.65
2023-05-03T12:32:45.369Z,1.95
2023-05-03T12:38:10.293Z,4.33
2023-05-03T12:40:55.676Z,5.10
2023-05-03T12:43:28.270Z,3.67
2023-05-03T12:46:32.394Z,6.08
2023-05-03T12:48:46.951Z,6.17
2023-05-03T12:54:10.263Z,19.17
2023-05-03T12:57:00.314Z,4.45
2023-05-03T12:59:52.353Z,3.75
2023-05-03T13:12:49.600Z,16.52
2023-05-03T13:15:46.799Z,3.95
2023-05-03T13:18:09.409Z,6.80
2023-05-03T13:21:00.430Z,2.62
2023-05-03T13:23:48.441Z,3.67
2023-05-03T13:26:20.411Z,6.95
2023-05-03T13:28:56.905Z,7.42
2023-05-03T13:31:27.398Z,2.42
2023-05-03T13:33:57.493Z,9.03
2023-05-03T13:36:54.764Z,4.70
2023-05-03T13:39:28.516Z,2.10
2023-05-03T13:41:58.744Z,2.10
2023-05-03T13:44:27.031Z,5.33
2023-05-03T13:46:55.926Z,10.15
2023-05-03T13:49:30.532Z,9.25
2023-05-03T13:51:59.697Z,3.58
2023-05-03T13:54:32.114Z,2.55
2023-05-03T13:57:09.109Z,6.05
2023-05-03T13:59:48.911Z,4.25
2023-05-03T14:02:18.661Z,6.87
2023-05-03T14:04:46.846Z,3.17
2023-05-03T14:07:14.958Z,3.33
2023-05-03T14:09:43.801Z,4.40
2023-05-03T14:12:14.900Z,3.12
2023-05-03T14:14:52.556Z,1.62
2023-05-03T14:17:27.081Z,1.00
2023-05-03T14:20:03.337Z,5.10
2023-05-03T14:22:33.821Z,2.70
2023-05-03T14:25:02.489Z,3.70
2023-05-03T14:27:30.928Z,4.90
2023-05-03T14:30:03.459Z,4.22
2023-05-03T14:32:33.491Z,5.33
2023-05-03T14:35:12.725Z,1.02
2023-05-03T14:37:44.069Z,10.88
2023-05-03T14:40:13.348Z,1.25
2023-05-03T14:42:43.935Z,0.95
2023-05-03T14:45:14.319Z,4.65
2023-05-03T14:47:42.923Z,4.50
2023-05-03T14:50:11.077Z,3.27
2023-05-03T14:52:39.000Z,2.02
2023-05-03T14:55:08.605Z,2.42
2023-05-03T14:57:37.844Z,1.70
2023-05-03T15:00:09.217Z,1.37
2023-05-03T15:02:38.884Z,4.08
2023-05-03T15:05:09.028Z,5.83
2023-05-03T15:07:40.294Z,2.15
2023-05-03T15:10:10.913Z,2.62
2023-05-03T15:12:42.575Z,2.87
2023-05-03T15:15:13.116Z,5.95
2023-05-03T15:17:41.075Z,4.08
2023-05-03T15:20:14.291Z,3.65
2023-05-03T15:22:42.310Z,2.92
2023-05-03T15:25:10.971Z,4.80
2023-05-03T15:27:38.914Z,5.40
2023-05-03T15:30:11.254Z,2.40
2023-05-03T15:32:41.172Z,6.40
2023-05-03T15:35:09.773Z,6.87
2023-05-03T15:37:37.736Z,7.78
2023-05-03T15:40:09.089Z,4.20
2023-05-03T15:42:38.689Z,4.55
2023-05-03T15:45:10.073Z,4.90
2023-05-03T15:47:38.293Z,3.75
2023-05-03T15:50:08.176Z,4.15
2023-05-03T15:55:58.051Z,4.47
2023-05-03T15:58:32.398Z,4.10
2023-05-03T16:01:03.830Z,8.40
2023-05-03T16:03:33.788Z,7.53
2023-05-03T16:06:02.793Z,3.98
2023-05-03T16:09:19.385Z,7.20
2023-05-03T16:11:52.623Z,2.80
2023-05-03T16:14:24.498Z,1.60
2023-05-03T16:17:02.011Z,4.53
2023-05-03T16:19:33.327Z,3.10
2023-05-03T16:22:05.732Z,2.72
2023-05-03T16:24:37.362Z,4.53
2023-05-03T16:27:10.869Z,3.15
2023-05-03T16:29:45.445Z,2.65
2023-05-03T16:32:18.639Z,8.65
2023-05-03T16:34:52.085Z,8.95
2023-05-03T16:37:22.050Z,8.33
2023-05-03T16:39:56.585Z,7.75
2023-05-03T16:42:45.791Z,5.10
2023-05-03T16:45:36.542Z,5.50
2023-05-03T16:48:10.435Z,8.83
2023-05-03T16:50:50.222Z,9.25
2023-05-03T16:53:43.255Z,10.32
2023-05-03T16:56:16.026Z,4.30
2023-05-03T16:58:55.958Z,1.90
2023-05-03T17:01:26.479Z,8.75
2023-05-03T17:04:06.701Z,3.37
2023-05-03T17:06:43.035Z,5.30
2023-05-03T17:09:13.925Z,4.35
2023-05-03T17:11:45.492Z,7.08
2023-05-03T17:14:13.747Z,26.15
2023-05-03T17:16:41.858Z,14.78
2023-05-03T17:19:11.463Z,13.43
2023-05-03T17:21:45.557Z,15.85
2023-05-03T17:38:20.513Z,23.40
2023-05-03T17:40:53.899Z,22.98
2023-05-03T17:43:23.530Z,26.02
2023-05-03T17:45:58.129Z,15.63
2023-05-03T17:58:26.532Z,14.15
2023-05-03T18:00:56.491Z,27.98
2023-05-03T18:03:25.341Z,20.90
2023-05-03T18:06:00.964Z,7.62
2023-05-03T18:08:28.921Z,10.85
2023-05-03T18:10:59.135Z,10.30
2023-05-03T18:13:27.408Z,7.10
2023-05-03T18:15:55.578Z,12.65
2023-05-03T18:18:33.863Z,9.63
2023-05-03T18:21:05.126Z,8.38
2023-05-03T18:23:35.440Z,9.68
2023-05-03T18:26:03.379Z,7.58
2023-05-03T18:28:31.371Z,8.38
2023-05-03T18:30:59.299Z,21.87
2023-05-03T18:33:26.976Z,27.27
2023-05-03T18:35:58.369Z,25.05
2023-05-03T18:38:27.799Z,21.05
2023-05-03T18:40:58.344Z,25.68
2023-05-03T18:43:35.428Z,37.25
2023-05-03T18:46:03.233Z,27.55
2023-05-03T18:48:34.655Z,21.12
2023-05-03T18:51:05.618Z,22.27
2023-05-03T18:53:58.542Z,21.00
2023-05-03T19:15:16.325Z,24.05
2023-05-03T19:17:46.383Z,22.50
2023-05-03T19:20:17.029Z,26.82
2023-05-03T19:22:50.732Z,30.37
2023-05-03T19:25:24.743Z,19.67
2023-05-03T19:27:52.949Z,19.82
2023-05-03T19:30:23.735Z,19.42
2023-05-03T19:32:52.694Z,22.10
2023-05-03T19:35:29.099Z,20.08
2023-05-03T19:38:03.176Z,20.68
2023-05-03T19:40:34.810Z,22.82
2023-05-03T19:43:03.027Z,32.42
2023-05-03T19:45:31.118Z,37.88
2023-05-03T19:47:59.547Z,43.50
2023-05-03T19:50:29.960Z,23.50
2023-05-03T19:52:57.892Z,24.00
2023-05-03T19:55:30.858Z,26.05
2023-05-03T19:57:59.083Z,14.18
2023-05-03T20:00:27.992Z,12.68
2023-05-03T20:02:56.083Z,12.25
2023-05-03T20:05:24.247Z,14.93
2023-05-03T20:07:54.486Z,11.15
2023-05-03T20:10:46.397Z,11.25
2023-05-03T20:13:47.253Z,10.30
2023-05-03T20:16:21.625Z,8.10
2023-05-03T20:19:00.023Z,5.00
2023-05-03T20:38:43.342Z,3.83
2023-05-03T20:51:19.799Z,4.85
2023-05-03T20:54:09.656Z,7.50
2023-05-03T20:57:00.704Z,10.18
2023-05-03T20:59:31.881Z,9.10
2023-05-03T21:02:21.641Z,6.65
2023-05-03T21:04:51.765Z,6.70
2023-05-03T21:10:11.554Z,9.40
2023-05-03T21:12:42.015Z,6.67
2023-05-03T21:15:21.666Z,9.20
2023-05-03T21:17:54.678Z,8.38
2023-05-03T21:20:27.411Z,11.90
2023-05-03T21:22:55.430Z,7.95
2023-05-03T21:25:24.270Z,12.20
2023-05-03T21:28:02.403Z,10.30
2023-05-03T21:30:35.639Z,8.10
2023-05-03T21:33:04.118Z,9.33
2023-05-03T21:35:34.306Z,7.55
2023-05-03T21:38:02.564Z,7.47
2023-05-03T21:40:31.480Z,5.65
2023-05-03T21:43:07.486Z,8.48
2023-05-03T21:45:43.767Z,5.70
2023-05-03T21:48:12.764Z,10.35
2023-05-03T21:50:42.925Z,9.88
2023-05-03T21:53:23.074Z,11.88
2023-05-03T21:56:01.931Z,10.23
2023-05-03T21:58:34.212Z,7.67
2023-05-03T22:01:03.294Z,8.05
2023-05-03T22:03:32.852Z,12.35
2023-05-03T22:06:01.240Z,9.78
2023-05-03T22:08:30.207Z,8.53
2023-05-03T22:10:59.242Z,9.53
2023-05-03T22:13:27.486Z,13.25
2023-05-03T22:15:57.413Z,12.15
2023-05-03T22:22:35.429Z,11.63
2023-05-03T22:25:48.552Z,7.08
2023-05-03T22:28:31.709Z,9.75
2023-05-03T22:31:28.173Z,6.45
2023-05-03T22:34:17.276Z,5.37
2023-05-03T22:36:53.298Z,4.75
2023-05-03T22:39:43.389Z,4.10
2023-05-03T22:42:17.965Z,5.15
2023-05-03T22:44:46.148Z,5.00
2023-05-03T22:47:15.128Z,4.03
2023-05-03T22:49:45.289Z,5.58
2023-05-03T22:52:13.438Z,2.80
2023-05-03T23:02:29.781Z,3.05
2023-05-03T23:05:35.260Z,3.52
2023-05-03T23:08:06.501Z,3.27
2023-05-03T23:10:34.506Z,1.80
2023-05-03T23:13:02.523Z,2.60
2023-05-03T23:15:30.753Z,5.92
2023-05-03T23:17:58.936Z,2.65
2023-05-03T23:20:26.896Z,3.77
2023-05-03T23:22:54.983Z,4.03
2023-05-03T23:25:23.213Z,2.83
2023-05-03T23:27:53.738Z,4.12
2023-05-03T23:30:22.783Z,3.10
2023-05-03T23:32:54.436Z,4.08
2023-05-03T23:35:22.883Z,4.97
2023-05-03T23:37:51.129Z,5.35
2023-05-03T23:40:19.389Z,7.25
2023-05-03T23:42:48.771Z,3.02
2023-05-03T23:45:17.340Z,5.97
2023-05-03T23:47:45.532Z,5.92
2023-05-03T23:50:13.494Z,7.03
2023-05-03T23:52:42.083Z,7.03
2023-05-03T23:55:10.543Z,6.00
2023-05-03T23:57:40.529Z,8.85
